createdAt,value
2023-03-15T00:02:25.107Z,101240.59
2023-03-15T00:04:54.919Z,101246.30
2023-03-15T00:07:26.006Z,101256.50
2023-03-15T00:09:56.131Z,101249.96
2023-03-15T00:12:26.335Z,101249.96
2023-03-15T00:14:56.157Z,101248.14
2023-03-15T00:17:25.881Z,101251.80
2023-03-15T00:19:55.720Z,101246.18
2023-03-15T00:22:25.247Z,101260.31
2023-03-15T00:24:54.997Z,101258.39
2023-03-15T00:27:24.759Z,101260.13
2023-03-15T00:29:55.291Z,101255.66
2023-03-15T00:32:25.063Z,101257.56
2023-03-15T00:34:55.156Z,101260.20
2023-03-15T00:37:25.688Z,101256.23
2023-03-15T00:39:55.922Z,101253.31
2023-03-15T00:42:27.372Z,101244.07
2023-03-15T00:44:57.446Z,101253.81
2023-03-15T00:47:27.671Z,101248.80
2023-03-15T00:49:57.477Z,101251.00
2023-03-15T00:52:27.145Z,101265.34
2023-03-15T00:54:57.283Z,101261.13
2023-03-15T00:57:27.678Z,101259.39
2023-03-15T00:59:57.790Z,101266.47
2023-03-15T01:02:27.737Z,101275.25
2023-03-15T01:04:57.620Z,101276.41
2023-03-15T01:07:27.541Z,101283.28
2023-03-15T01:09:57.448Z,101284.39
2023-03-15T01:12:27.687Z,101285.40
2023-03-15T01:14:57.783Z,101289.02
2023-03-15T01:17:27.991Z,101300.26
2023-03-15T01:19:58.594Z,101301.18
2023-03-15T01:22:28.762Z,101305.78
2023-03-15T01:24:58.552Z,101299.00
2023-03-15T01:27:28.915Z,101298.53
2023-03-15T01:29:59.395Z,101311.83
2023-03-15T01:32:29.337Z,101313.16
2023-03-15T01:34:59.278Z,101312.36
2023-03-15T01:37:29.196Z,101310.44
2023-03-15T01:39:59.209Z,101305.03
2023-03-15T01:42:29.020Z,101308.86
2023-03-15T01:45:00.717Z,101314.47
2023-03-15T01:47:32.743Z,101317.55
2023-03-15T01:50:09.798Z,101315.81
2023-03-15T01:52:42.787Z,101319.81
2023-03-15T01:55:17.015Z,101322.55
2023-03-15T01:57:59.772Z,101327.81
2023-03-15T02:00:31.579Z,101330.83
2023-03-15T02:03:15.399Z,101334.13
2023-03-15T02:05:49.578Z,101334.44
2023-03-15T02:08:23.034Z,101334.13
2023-03-15T02:10:55.526Z,101330.81
2023-03-15T02:13:27.763Z,101332.95
2023-03-15T02:15:58.549Z,101333.03
2023-03-15T02:18:30.056Z,101333.17
2023-03-15T02:21:23.674Z,101334.77
2023-03-15T02:24:05.472Z,101340.92
2023-03-15T02:26:40.982Z,101340.25
2023-03-15T02:29:11.004Z,101346.16
2023-03-15T02:31:41.281Z,101344.31
2023-03-15T02:34:12.645Z,101344.11
2023-03-15T02:36:43.732Z,101344.11
2023-03-15T02:39:18.476Z,101355.33
2023-03-15T02:41:54.124Z,101354.70
2023-03-15T02:44:29.552Z,101356.33
2023-03-15T02:47:02.470Z,101355.40
2023-03-15T02:49:35.856Z,101364.39
2023-03-15T02:52:06.496Z,101367.09
2023-03-15T02:54:36.565Z,101369.77
2023-03-15T02:57:06.504Z,101371.63
2023-03-15T02:59:36.710Z,101379.59
2023-03-15T03:02:06.897Z,101381.90
2023-03-15T03:04:37.085Z,101377.52
2023-03-15T03:07:07.482Z,101387.38
2023-03-15T03:09:41.969Z,101397.46
2023-03-15T03:12:13.497Z,101398.05
2023-03-15T03:14:44.016Z,101393.07
2023-03-15T03:17:15.571Z,101403.98
2023-03-15T03:19:45.857Z,101412.58
2023-03-15T03:22:18.822Z,101409.13
2023-03-15T03:24:48.705Z,101413.58
2023-03-15T03:27:19.368Z,101415.71
2023-03-15T03:29:50.201Z,101413.28
2023-03-15T03:32:19.733Z,101423.49
2023-03-15T03:34:49.565Z,101433.56
2023-03-15T03:37:22.072Z,101427.73
2023-03-15T03:39:59.778Z,101433.27
2023-03-15T03:42:29.417Z,101441.64
2023-03-15T03:44:59.259Z,101449.38
2023-03-15T03:47:30.770Z,101458.91
2023-03-15T03:50:00.605Z,101454.66
2023-03-15T03:52:30.812Z,101455.30
2023-03-15T03:55:03.731Z,101462.39
2023-03-15T03:57:33.855Z,101463.75
2023-03-15T04:00:04.777Z,101474.17
2023-03-15T04:02:36.891Z,101482.48
2023-03-15T04:05:08.532Z,101488.50
2023-03-15T04:07:39.591Z,101494.89
2023-03-15T04:10:12.622Z,101460.92
2023-03-15T04:12:46.253Z,101460.92
2023-03-15T04:15:16.849Z,101493.02
2023-03-15T04:17:47.118Z,101492.82
2023-03-15T04:20:17.499Z,101498.56
2023-03-15T04:22:49.678Z,101514.39
2023-03-15T04:25:24.737Z,101511.59
2023-03-15T04:28:02.738Z,101512.97
2023-03-15T04:30:33.895Z,101520.41
2023-03-15T04:33:08.322Z,101522.30
2023-03-15T04:35:45.708Z,101517.86
2023-03-15T04:38:34.472Z,101529.13
2023-03-15T04:41:20.752Z,101531.33
2023-03-15T04:43:54.769Z,101532.25
2023-03-15T04:46:44.044Z,101536.21
2023-03-15T04:49:24.956Z,101541.01
2023-03-15T04:51:56.426Z,101542.25
2023-03-15T04:54:31.099Z,101546.69
2023-03-15T04:57:18.771Z,101551.47
2023-03-15T04:59:50.843Z,101551.47
2023-03-15T05:02:28.391Z,101551.28
2023-03-15T05:05:00.223Z,101555.86
2023-03-15T05:07:38.760Z,101558.06
2023-03-15T05:10:16.538Z,101563.00
2023-03-15T05:12:51.014Z,101564.65
2023-03-15T05:15:28.558Z,101572.34
2023-03-15T05:18:00.434Z,101572.34
2023-03-15T05:20:43.670Z,101580.17
2023-03-15T05:23:25.328Z,101578.98
2023-03-15T05:25:58.073Z,101581.30
2023-03-15T05:28:45.614Z,101588.69
2023-03-15T05:31:19.757Z,101591.89
2023-03-15T05:33:57.425Z,101592.80
2023-03-15T05:36:41.865Z,101595.06
2023-03-15T05:39:15.383Z,101593.41
2023-03-15T05:41:53.060Z,101603.05
2023-03-15T05:44:42.680Z,101606.56
2023-03-15T05:47:14.157Z,101609.89
2023-03-15T05:49:54.223Z,101613.88
2023-03-15T05:52:26.408Z,101612.53
2023-03-15T05:55:00.378Z,101613.81
2023-03-15T05:57:43.908Z,101618.45
2023-03-15T06:00:18.664Z,101624.51
2023-03-15T06:02:50.334Z,101631.31
2023-03-15T06:05:24.466Z,101639.95
2023-03-15T06:07:54.370Z,101639.75
2023-03-15T06:10:24.335Z,101643.66
2023-03-15T06:12:55.393Z,101651.34
2023-03-15T06:15:25.252Z,101646.30
2023-03-15T06:17:55.426Z,101664.04
2023-03-15T06:20:26.789Z,101664.04
2023-03-15T06:22:57.243Z,101670.42
2023-03-15T06:25:29.035Z,101662.34
2023-03-15T06:27:59.204Z,101669.38
2023-03-15T06:30:29.640Z,101664.89
2023-03-15T06:33:01.222Z,101675.09
2023-03-15T06:35:33.016Z,101673.25
2023-03-15T06:38:02.918Z,101682.03
2023-03-15T06:40:34.718Z,101680.97
2023-03-15T06:43:06.225Z,101683.72
2023-03-15T06:45:36.808Z,101690.67
2023-03-15T06:48:07.044Z,101701.70
2023-03-15T06:50:46.976Z,101708.82
2023-03-15T06:53:09.051Z,101714.81
2023-03-15T06:55:38.853Z,101717.58
2023-03-15T06:58:08.707Z,101723.19
2023-03-15T07:00:38.916Z,101737.63
2023-03-15T07:03:08.822Z,101739.73
2023-03-15T07:05:39.029Z,101746.08
2023-03-15T07:08:08.972Z,101750.73
2023-03-15T07:10:38.829Z,101750.73
2023-03-15T07:13:09.758Z,101749.03
2023-03-15T07:15:40.072Z,101751.13
2023-03-15T07:18:10.071Z,101762.80
2023-03-15T07:20:39.907Z,101762.22
2023-03-15T07:23:09.723Z,101771.17
2023-03-15T07:25:54.053Z,101778.70
2023-03-15T07:28:11.100Z,101776.86
2023-03-15T07:30:40.853Z,101782.92
2023-03-15T07:33:10.670Z,101778.52
2023-03-15T07:35:41.334Z,101787.11
2023-03-15T07:38:11.839Z,101784.62
2023-03-15T07:40:41.579Z,101787.72
2023-03-15T07:43:11.350Z,101789.91
2023-03-15T07:45:41.122Z,101799.34
2023-03-15T07:48:11.252Z,101803.17
2023-03-15T07:50:42.931Z,101807.27
2023-03-15T07:53:12.578Z,101803.98
2023-03-15T07:55:42.398Z,101810.06
2023-03-15T07:58:11.906Z,101811.20
2023-03-15T08:00:41.844Z,101819.17
2023-03-15T08:03:12.169Z,101826.81
2023-03-15T08:05:42.073Z,101819.51
2023-03-15T08:08:11.962Z,101829.70
2023-03-15T08:10:43.109Z,101824.94
2023-03-15T08:13:13.459Z,101823.83
2023-03-15T08:15:44.787Z,101836.64
2023-03-15T08:18:14.917Z,101836.23
2023-03-15T08:20:44.684Z,101839.70
2023-03-15T08:23:16.339Z,101850.83
2023-03-15T08:25:46.561Z,101854.75
2023-03-15T08:28:16.888Z,101852.05
2023-03-15T08:30:46.697Z,101861.78
2023-03-15T08:33:16.508Z,101849.87
2023-03-15T08:35:46.454Z,101861.54
2023-03-15T08:38:17.028Z,101867.55
2023-03-15T08:40:47.069Z,101871.27
2023-03-15T08:43:16.931Z,101872.12
2023-03-15T08:46:00.279Z,101874.61
2023-03-15T08:48:18.570Z,101882.30
2023-03-15T08:50:48.684Z,101881.19
2023-03-15T08:53:18.508Z,101851.22
2023-03-15T08:55:49.787Z,101882.48
2023-03-15T08:58:19.396Z,101890.34
2023-03-15T09:00:51.539Z,101892.97
2023-03-15T09:03:22.500Z,101884.52
2023-03-15T09:05:54.079Z,101893.80
2023-03-15T09:08:25.222Z,101902.40
2023-03-15T09:10:57.072Z,101897.98
2023-03-15T09:13:27.408Z,101904.57
2023-03-15T09:15:58.427Z,101901.88
2023-03-15T09:18:28.486Z,101910.28
2023-03-15T09:20:58.346Z,101908.97
2023-03-15T09:23:28.179Z,101905.69
2023-03-15T09:25:57.990Z,101914.13
2023-03-15T09:28:27.928Z,101915.89
2023-03-15T09:30:59.575Z,101902.27
2023-03-15T09:33:29.250Z,101898.89
2023-03-15T09:35:59.852Z,101895.14
2023-03-15T09:38:29.586Z,101901.98
2023-03-15T09:41:00.339Z,101901.06
2023-03-15T09:43:54.091Z,101905.20
2023-03-15T09:46:29.728Z,101906.77
2023-03-15T09:49:17.182Z,101905.38
2023-03-15T09:51:55.755Z,101908.14
2023-03-15T09:54:34.452Z,101917.16
2023-03-15T09:57:08.927Z,101917.16
2023-03-15T09:59:43.025Z,101902.76
2023-03-15T10:02:24.341Z,101902.76
2023-03-15T10:04:57.274Z,101900.65
2023-03-15T10:07:27.663Z,101910.22
2023-03-15T10:09:59.031Z,101910.22
2023-03-15T10:12:36.074Z,101911.25
2023-03-15T10:15:26.512Z,101909.04
2023-03-15T10:18:26.208Z,101909.85
2023-03-15T10:21:01.695Z,101921.06
2023-03-15T10:23:51.964Z,101909.64
2023-03-15T10:26:27.255Z,101906.95
2023-03-15T10:28:57.132Z,101907.36
2023-03-15T10:31:41.291Z,101909.25
2023-03-15T10:34:02.527Z,101916.95
2023-03-15T10:36:32.098Z,101914.73
2023-03-15T10:39:02.965Z,101904.48
2023-03-15T10:41:47.235Z,101920.18
2023-03-15T10:44:19.794Z,101934.01
2023-03-15T10:47:22.511Z,101923.25
2023-03-15T10:49:43.995Z,101929.06
2023-03-15T10:52:35.923Z,101933.81
2023-03-15T10:55:16.603Z,101933.97
2023-03-15T10:57:55.329Z,101928.41
2023-03-15T11:00:31.006Z,101939.43
2023-03-15T11:03:18.659Z,101940.14
2023-03-15T11:05:51.656Z,101937.89
2023-03-15T11:08:24.216Z,101945.67
2023-03-15T11:11:01.123Z,101942.61
2023-03-15T11:13:39.081Z,101946.88
2023-03-15T11:16:17.623Z,101938.48
2023-03-15T11:18:58.866Z,101944.98
2023-03-15T11:21:33.167Z,101945.95
2023-03-15T11:24:05.624Z,101958.09
2023-03-15T11:26:40.717Z,101959.70
2023-03-15T11:29:19.095Z,101957.09
2023-03-15T11:31:50.171Z,101960.50
2023-03-15T11:34:34.760Z,101969.70
2023-03-15T11:37:09.386Z,101968.48
2023-03-15T11:39:43.530Z,101972.25
2023-03-15T11:42:16.993Z,101962.63
2023-03-15T11:44:51.957Z,101964.59
2023-03-15T11:47:39.605Z,101952.70
2023-03-15T11:50:11.200Z,101953.69
2023-03-15T11:52:41.322Z,101953.72
2023-03-15T11:55:22.514Z,101947.98
2023-03-15T11:57:53.294Z,101951.34
2023-03-15T12:00:34.781Z,101950.98
2023-03-15T12:03:33.887Z,101950.34
2023-03-15T12:06:18.641Z,101950.34
2023-03-15T12:08:51.438Z,101938.59
2023-03-15T12:11:26.879Z,101940.25
2023-03-15T12:14:02.125Z,101940.95
2023-03-15T12:16:34.868Z,101939.14
2023-03-15T12:21:54.343Z,101937.48
2023-03-15T12:24:29.604Z,101943.92
2023-03-15T12:27:08.437Z,101944.55
2023-03-15T12:29:38.770Z,101946.83
2023-03-15T12:32:11.461Z,101953.60
2023-03-15T12:34:59.094Z,101940.62
2023-03-15T12:37:40.701Z,101937.23
2023-03-15T12:40:22.401Z,101937.23
2023-03-15T12:42:58.056Z,101943.62
2023-03-15T12:45:37.562Z,101935.77
2023-03-15T12:48:12.917Z,101945.39
2023-03-15T12:50:50.212Z,101949.28
2023-03-15T12:53:25.484Z,101935.03
2023-03-15T12:56:06.139Z,101939.58
2023-03-15T12:58:33.501Z,101936.09
2023-03-15T13:01:06.367Z,101937.12
2023-03-15T13:03:37.098Z,101936.42
2023-03-15T13:06:24.832Z,101942.75
2023-03-15T13:09:06.552Z,101936.23
2023-03-15T13:12:08.564Z,101938.84
2023-03-15T13:14:44.576Z,101943.52
2023-03-15T13:17:31.951Z,101937.99
2023-03-15T13:20:37.239Z,101943.90
2023-03-15T13:23:26.184Z,101944.80
2023-03-15T13:26:15.192Z,101949.64
2023-03-15T13:29:03.641Z,101939.58
2023-03-15T13:31:34.596Z,101946.69
2023-03-15T13:34:24.250Z,101938.20
2023-03-15T13:37:01.381Z,101933.70
2023-03-15T13:39:34.268Z,101924.48
2023-03-15T13:42:09.689Z,101921.64
2023-03-15T13:44:39.167Z,101924.41
2023-03-15T13:47:08.994Z,101930.67
2023-03-15T13:49:38.843Z,101936.00
2023-03-15T13:52:12.701Z,101932.36
2023-03-15T13:54:44.326Z,101939.44
2023-03-15T13:57:17.472Z,101949.22
2023-03-15T13:59:55.923Z,101942.23
2023-03-15T14:02:28.828Z,101944.60
2023-03-15T14:05:01.647Z,101939.14
2023-03-15T14:07:44.950Z,101928.97
2023-03-15T14:10:28.190Z,101939.63
2023-03-15T14:13:00.170Z,101947.59
2023-03-15T14:15:39.279Z,101945.71
2023-03-15T14:18:12.922Z,101945.02
2023-03-15T14:20:44.808Z,101949.48
2023-03-15T14:23:17.477Z,101951.13
2023-03-15T14:25:53.154Z,101951.41
2023-03-15T14:28:24.747Z,101951.45
2023-03-15T14:30:57.118Z,101950.44
2023-03-15T14:33:33.115Z,101955.95
2023-03-15T14:36:07.233Z,101952.47
2023-03-15T14:38:40.118Z,101956.11
2023-03-15T14:41:15.560Z,101956.94
2023-03-15T14:43:45.108Z,101959.62
2023-03-15T14:46:14.801Z,101959.89
2023-03-15T14:48:44.890Z,101956.31
2023-03-15T14:51:19.880Z,101963.48
2023-03-15T14:53:53.306Z,101962.16
2023-03-15T14:56:23.515Z,101954.50
2023-03-15T14:58:55.430Z,101956.66
2023-03-15T15:01:28.102Z,101956.66
2023-03-15T15:04:03.320Z,101949.14
2023-03-15T15:06:33.254Z,101948.45
2023-03-15T15:09:06.344Z,101942.37
2023-03-15T15:11:36.183Z,101947.67
2023-03-15T15:14:12.282Z,101951.16
2023-03-15T15:16:43.077Z,101954.17
2023-03-15T15:19:12.984Z,101942.42
2023-03-15T15:21:44.539Z,101945.18
2023-03-15T15:24:19.904Z,101935.72
2023-03-15T15:26:49.735Z,101923.36
2023-03-15T15:29:19.539Z,101921.59
2023-03-15T15:31:49.338Z,101927.81
2023-03-15T15:34:19.035Z,101927.81
2023-03-15T15:36:48.885Z,101929.77
2023-03-15T15:39:24.018Z,101931.47
2023-03-15T15:41:54.503Z,101918.75
2023-03-15T15:44:28.104Z,101923.82
2023-03-15T15:46:57.863Z,101923.25
2023-03-15T15:49:27.623Z,101916.84
2023-03-15T15:51:57.466Z,101919.43
2023-03-15T15:54:30.527Z,101916.46
2023-03-15T15:57:02.336Z,101914.20
2023-03-15T15:59:32.149Z,101905.86
2023-03-15T16:02:02.583Z,101905.86
2023-03-15T16:04:32.956Z,101908.75
2023-03-15T16:07:04.118Z,101910.70
2023-03-15T16:09:40.009Z,101907.22
2023-03-15T16:12:17.826Z,101912.04
2023-03-15T16:14:47.655Z,101914.88
2023-03-15T16:17:22.801Z,101901.53
2023-03-15T16:19:54.169Z,101913.58
2023-03-15T16:22:26.381Z,101906.47
2023-03-15T16:25:00.380Z,101914.84
2023-03-15T16:27:30.705Z,101919.38
2023-03-15T16:30:02.410Z,101918.70
2023-03-15T16:32:44.045Z,101925.22
2023-03-15T16:35:07.952Z,101920.09
2023-03-15T16:37:37.506Z,101916.52
2023-03-15T16:40:12.444Z,101921.30
2023-03-15T16:42:42.199Z,101921.00
2023-03-15T16:45:15.973Z,101924.78
2023-03-15T16:47:45.990Z,101931.92
2023-03-15T16:50:17.107Z,101923.55
2023-03-15T16:52:49.805Z,101930.09
2023-03-15T16:55:25.740Z,101931.63
2023-03-15T16:57:55.692Z,101937.23
2023-03-15T17:00:25.468Z,101931.11
2023-03-15T17:02:57.053Z,101935.37
2023-03-15T17:05:27.420Z,101936.38
2023-03-15T17:07:57.169Z,101935.21
2023-03-15T17:10:32.743Z,101942.00
2023-03-15T17:13:03.954Z,101944.58
2023-03-15T17:15:33.799Z,101939.79
2023-03-15T17:18:04.683Z,101943.36
2023-03-15T17:20:34.431Z,101941.13
2023-03-15T17:23:05.901Z,101941.14
2023-03-15T17:25:35.919Z,101944.51
2023-03-15T17:28:07.210Z,101943.52
2023-03-15T17:30:38.614Z,101947.04
2023-03-15T17:33:09.022Z,101939.78
2023-03-15T17:35:44.661Z,101940.21
2023-03-15T17:38:19.691Z,101944.48
2023-03-15T17:40:50.086Z,101946.10
2023-03-15T17:43:20.245Z,101933.39
2023-03-15T17:45:50.056Z,101944.91
2023-03-15T17:48:19.609Z,101950.69
2023-03-15T17:50:49.438Z,101950.78
2023-03-15T17:53:21.008Z,101951.91
2023-03-15T17:55:52.368Z,101954.79
2023-03-15T17:58:23.791Z,101954.79
2023-03-15T18:00:57.076Z,101955.60
2023-03-15T18:03:27.651Z,101960.08
2023-03-15T18:05:59.355Z,101968.41
2023-03-15T18:08:28.919Z,101959.19
2023-03-15T18:10:59.821Z,101968.91
2023-03-15T18:13:29.888Z,101967.89
2023-03-15T18:15:59.988Z,101971.67
2023-03-15T18:18:29.725Z,101971.83
2023-03-15T18:20:59.465Z,101978.13
2023-03-15T18:23:29.502Z,101978.07
2023-03-15T18:25:59.252Z,101980.50
2023-03-15T18:28:29.006Z,101982.94
2023-03-15T18:30:58.731Z,101979.16
2023-03-15T18:33:30.264Z,101982.19
2023-03-15T18:35:59.829Z,101978.47
2023-03-15T18:38:30.024Z,101976.53
2023-03-15T18:40:59.962Z,101978.72
2023-03-15T18:43:29.833Z,101983.69
2023-03-15T18:45:59.946Z,101986.89
2023-03-15T18:48:40.045Z,101985.10
2023-03-15T18:51:01.770Z,101983.27
2023-03-15T18:53:31.842Z,101983.27
2023-03-15T18:56:01.746Z,101979.71
2023-03-15T18:58:32.278Z,101979.44
2023-03-15T19:01:02.355Z,101980.03
2023-03-15T19:03:32.249Z,101984.45
2023-03-15T19:06:07.495Z,101974.61
2023-03-15T19:08:37.577Z,101975.99
2023-03-15T19:11:08.448Z,101976.05
2023-03-15T19:13:39.014Z,101978.45
2023-03-15T19:16:10.921Z,101978.45
2023-03-15T19:18:42.667Z,101972.41
2023-03-15T19:21:12.587Z,101972.41
2023-03-15T19:23:42.416Z,101967.39
2023-03-15T19:26:13.679Z,101965.97
2023-03-15T19:28:43.661Z,101959.04
2023-03-15T19:31:13.474Z,101968.19
2023-03-15T19:33:43.345Z,101960.64
2023-03-15T19:36:13.256Z,101963.33
2023-03-15T19:38:43.759Z,101964.38
2023-03-15T19:41:13.541Z,101965.26
2023-03-15T19:43:43.610Z,101973.39
2023-03-15T19:46:14.857Z,101972.57
2023-03-15T19:48:44.742Z,101973.39
2023-03-15T19:51:16.068Z,101977.02
2023-03-15T19:53:46.100Z,101967.38
2023-03-15T19:56:15.714Z,101981.84
2023-03-15T19:58:45.502Z,101964.66
2023-03-15T20:01:16.063Z,101962.80
2023-03-15T20:03:45.834Z,101957.45
2023-03-15T20:06:15.352Z,101961.73
2023-03-15T20:08:45.201Z,101967.23
2023-03-15T20:11:16.583Z,101969.64
2023-03-15T20:13:46.760Z,101974.39
2023-03-15T20:16:16.649Z,101970.54
2023-03-15T20:18:47.450Z,101969.25
2023-03-15T20:21:17.695Z,101972.40
2023-03-15T20:23:48.045Z,101974.46
2023-03-15T20:26:20.708Z,101970.91
2023-03-15T20:28:50.629Z,101974.70
2023-03-15T20:31:21.653Z,101977.22
2023-03-15T20:33:52.086Z,101973.77
2023-03-15T20:36:22.322Z,101977.36
2023-03-15T20:38:52.115Z,101982.28
2023-03-15T20:41:21.998Z,101972.19
2023-03-15T20:43:52.133Z,101970.48
2023-03-15T20:46:22.504Z,101970.44
2023-03-15T20:48:55.234Z,101973.81
2023-03-15T20:51:25.393Z,101978.27
2023-03-15T20:53:55.242Z,101975.67
2023-03-15T20:56:25.343Z,101980.92
2023-03-15T20:58:55.478Z,101971.78
2023-03-15T21:01:25.290Z,101976.31
2023-03-15T21:03:56.321Z,101969.97
2023-03-15T21:06:26.360Z,101964.78
2023-03-15T21:08:56.176Z,101962.16
2023-03-15T21:11:26.039Z,101962.30
2023-03-15T21:13:56.681Z,101968.34
2023-03-15T21:16:26.696Z,101962.70
2023-03-15T21:18:56.804Z,101963.05
2023-03-15T21:21:26.650Z,101962.92
2023-03-15T21:23:56.846Z,101960.46
2023-03-15T21:26:26.388Z,101951.95
2023-03-15T21:28:56.296Z,101959.53
2023-03-15T21:31:26.169Z,101959.99
2023-03-15T21:33:55.981Z,101959.99
2023-03-15T21:36:25.530Z,101956.23
2023-03-15T21:38:55.314Z,101956.23
2023-03-15T21:41:25.047Z,101955.45
2023-03-15T21:43:54.935Z,101944.32
2023-03-15T21:46:24.706Z,101944.91
2023-03-15T21:48:54.494Z,101939.56
2023-03-15T21:51:24.348Z,101937.83
2023-03-15T21:53:54.062Z,101937.81
2023-03-15T21:56:26.066Z,101934.15
2023-03-15T21:58:56.330Z,101914.38
2023-03-15T22:01:26.374Z,101927.00
2023-03-15T22:03:56.183Z,101927.43
2023-03-15T22:06:25.726Z,101931.31
2023-03-15T22:08:55.380Z,101927.73
2023-03-15T22:11:25.198Z,101925.14
2023-03-15T22:13:54.948Z,101928.66
2023-03-15T22:16:24.431Z,101924.16
2023-03-15T22:18:54.502Z,101913.84
2023-03-15T22:21:24.552Z,101913.95
2023-03-15T22:23:54.363Z,101912.75
2023-03-15T22:26:24.285Z,101915.13
2023-03-15T22:28:54.010Z,101910.06
2023-03-15T22:31:23.864Z,101914.64
2023-03-15T22:33:53.720Z,101917.53
2023-03-15T22:36:23.190Z,101925.69
2023-03-15T22:38:53.110Z,101924.11
2023-03-15T22:41:23.938Z,101919.20
2023-03-15T22:43:54.772Z,101915.80
2023-03-15T22:46:24.277Z,101912.00
2023-03-15T22:48:54.652Z,101916.31
2023-03-15T22:51:24.419Z,101920.42
2023-03-15T22:53:54.325Z,101913.38
2023-03-15T22:56:24.016Z,101915.88
2023-03-15T22:58:55.460Z,101904.01
2023-03-15T23:01:25.486Z,101904.01
2023-03-15T23:03:55.254Z,101907.47
2023-03-15T23:06:25.372Z,101907.07
2023-03-15T23:08:55.140Z,101913.83
2023-03-15T23:11:24.909Z,101914.59
2023-03-15T23:13:54.744Z,101910.33
2023-03-15T23:16:24.559Z,101916.17
2023-03-15T23:18:54.893Z,101916.59
2023-03-15T23:21:24.717Z,101912.38
2023-03-15T23:23:54.580Z,101913.68
2023-03-15T23:26:25.415Z,101908.27
2023-03-15T23:28:55.951Z,101904.20
2023-03-15T23:31:25.901Z,101905.47
2023-03-15T23:33:55.979Z,101904.13
2023-03-15T23:36:25.753Z,101906.62
2023-03-15T23:38:55.288Z,101899.66
2023-03-15T23:41:25.056Z,101898.22
2023-03-15T23:43:54.877Z,101902.51
2023-03-15T23:46:24.706Z,101901.07
2023-03-15T23:48:54.440Z,101900.51
2023-03-15T23:51:24.223Z,101894.02
2023-03-15T23:53:54.025Z,101883.50
2023-03-15T23:56:24.150Z,101883.50
2023-03-15T23:58:53.899Z,101883.94
